Time;durP1;ratioP1;P1;durP2;ratioP2;P2;SDS_P1;SDS_P2;PMS_P1;PMS_P2;Temp;Humidity;BMP_temperature;BMP_pressure;BME280_temperature;BME280_humidity;BME280_pressure;Samples;Min_cycle;Max_cycle;Signal;HPM_P1;HPM_P2
2022/11/12 05:00:32;;;;;;;8.25;5.55;;;7.80;99.90;;;;;;5970392;22;20028;-68
2022/11/12 05:02:58;;;;;;;8.97;5.73;;;7.70;99.90;;;;;;5014130;28;20840;-69
2022/11/12 05:05:23;;;;;;;7.17;5.30;;;7.70;99.90;;;;;;4997731;28;20042;-70
2022/11/12 05:07:49;;;;;;;7.57;4.83;;;7.70;99.90;;;;;;4996002;28;20022;-69
2022/11/12 05:10:15;;;;;;;7.43;5.63;;;7.70;99.90;;;;;;4997327;28;20088;-69
2022/11/12 05:12:42;;;;;;;9.35;6.25;;;7.60;99.90;;;;;;4997739;28;20034;-68
2022/11/12 05:15:08;;;;;;;8.60;5.65;;;7.60;99.90;;;;;;5019427;23;20566;-69
2022/11/12 05:17:34;;;;;;;8.60;5.88;;;7.50;99.90;;;;;;4995156;28;20023;-67
2022/11/12 05:19:59;;;;;;;8.73;6.23;;;7.50;99.90;;;;;;4995136;28;20064;-69
2022/11/12 05:22:25;;;;;;;11.83;6.23;;;7.60;99.90;;;;;;4995330;28;20356;-69
2022/11/12 05:24:50;;;;;;;11.47;7.60;;;7.60;99.90;;;;;;4995229;28;20018;-69
2022/11/12 05:27:19;;;;;;;12.87;6.37;;;7.70;99.90;;;;;;4995075;28;20073;-69
2022/11/12 05:29:45;;;;;;;9.70;6.38;;;7.70;99.90;;;;;;4996016;28;20031;-68
2022/11/12 05:32:14;;;;;;;8.32;5.82;;;7.70;99.90;;;;;;4995983;28;20406;-67
2022/11/12 05:34:39;;;;;;;10.52;6.13;;;7.70;99.90;;;;;;4994553;28;20034;-67
2022/11/12 05:37:06;;;;;;;13.47;6.73;;;7.80;99.90;;;;;;4995897;28;20380;-68
2022/11/12 05:39:32;;;;;;;12.57;6.07;;;7.70;99.90;;;;;;4996326;28;20382;-68
2022/11/12 05:41:58;;;;;;;8.77;6.25;;;7.60;99.90;;;;;;4994567;28;20121;-68
2022/11/12 05:44:24;;;;;;;9.05;6.32;;;7.50;99.90;;;;;;4987492;28;20027;-68
2022/11/12 05:46:49;;;;;;;12.20;7.00;;;7.40;99.90;;;;;;4976328;28;20147;-67
2022/11/12 05:49:16;;;;;;;11.27;6.50;;;7.50;99.90;;;;;;4976623;28;20114;-68
2022/11/12 05:51:42;;;;;;;11.52;6.95;;;7.60;99.90;;;;;;4976424;28;20420;-68
2022/11/12 05:54:08;;;;;;;10.43;7.20;;;7.60;99.90;;;;;;4976331;28;20037;-69
2022/11/12 05:56:34;;;;;;;11.45;7.25;;;7.60;99.90;;;;;;4980222;28;20030;-68
2022/11/12 05:59:01;;;;;;;12.65;7.32;;;7.60;99.90;;;;;;4994957;28;20445;-68
2022/11/12 06:01:27;;;;;;;8.57;6.40;;;7.60;99.90;;;;;;4984039;28;20061;-69
2022/11/12 06:03:52;;;;;;;8.07;6.27;;;7.60;99.90;;;;;;4976640;28;20058;-69
2022/11/12 06:06:21;;;;;;;9.13;6.50;;;7.50;99.90;;;;;;4976282;28;20035;-69
2022/11/12 06:08:47;;;;;;;9.00;6.35;;;7.50;99.90;;;;;;4975035;28;20030;-68
2022/11/12 06:11:12;;;;;;;8.93;6.07;;;7.50;99.90;;;;;;4976016;28;20082;-69
2022/11/12 06:13:38;;;;;;;11.27;7.00;;;7.50;99.90;;;;;;4974491;28;20038;-69
2022/11/12 06:16:04;;;;;;;11.13;7.13;;;7.40;99.90;;;;;;4974787;28;20030;-69
2022/11/12 06:18:29;;;;;;;11.20;7.07;;;7.50;99.90;;;;;;4976369;28;20097;-69
2022/11/12 06:21:18;;;;;;;21.77;7.77;;;7.50;99.90;;;;;;4983058;28;20030;-69
2022/11/12 06:23:45;;;;;;;16.15;7.90;;;7.50;99.90;;;;;;4997055;28;20021;-69
2022/11/12 06:26:11;;;;;;;14.13;8.07;;;7.40;99.90;;;;;;4992288;28;20022;-69
2022/11/12 06:28:36;;;;;;;16.10;8.10;;;7.30;99.90;;;;;;4974725;28;20518;-68
2022/11/12 06:31:02;;;;;;;17.30;8.10;;;7.30;99.90;;;;;;4974560;28;20058;-69
2022/11/12 06:33:27;;;;;;;14.07;7.35;;;7.40;99.90;;;;;;4975621;28;20023;-74
2022/11/12 06:36:02;;;;;;;12.67;7.77;;;7.40;99.90;;;;;;4984790;28;20116;-73
2022/11/12 06:38:29;;;;;;;15.93;8.15;;;7.40;99.90;;;;;;4994253;28;20123;-71
2022/11/12 06:40:55;;;;;;;16.98;8.30;;;7.40;99.90;;;;;;4993954;28;20022;-73
2022/11/12 06:43:20;;;;;;;13.50;8.10;;;7.30;99.90;;;;;;4994879;28;20377;-70
2022/11/12 06:45:46;;;;;;;14.03;8.03;;;7.30;99.90;;;;;;5014715;28;20083;-71
2022/11/12 06:48:11;;;;;;;14.30;8.97;;;7.20;99.90;;;;;;5025717;28;20034;-70
2022/11/12 06:50:37;;;;;;;10.70;7.80;;;7.20;99.90;;;;;;5026937;28;20037;-70
2022/11/12 06:53:02;;;;;;;8.83;6.70;;;7.30;99.90;;;;;;5022083;28;20109;-72
2022/11/12 06:55:28;;;;;;;12.10;7.65;;;7.30;99.90;;;;;;5012113;28;20041;-71
2022/11/12 06:57:54;;;;;;;9.70;7.10;;;7.30;99.90;;;;;;4995854;28;20129;-70
2022/11/12 07:00:19;;;;;;;12.33;7.60;;;7.30;99.90;;;;;;4994574;28;20026;-71
2022/11/12 07:02:45;;;;;;;10.77;7.67;;;7.30;99.90;;;;;;4994513;28;20030;-70
2022/11/12 07:05:10;;;;;;;12.67;7.37;;;7.30;99.90;;;;;;5009135;28;20121;-69
2022/11/12 07:07:37;;;;;;;10.30;7.50;;;7.30;99.90;;;;;;4993185;28;20058;-70
2022/11/12 07:10:03;;;;;;;;;;;7.30;99.90;;;;;;4995406;28;20041;-76
2022/11/12 07:12:30;;;;;;;12.93;7.60;;;7.30;99.90;;;;;;4992518;28;19914;-74
2022/11/12 07:14:56;;;;;;;12.60;8.40;;;7.40;99.90;;;;;;4993800;28;20035;-71
2022/11/12 07:17:21;;;;;;;11.03;7.87;;;7.50;99.90;;;;;;4992788;28;20073;-70
2022/11/12 07:19:47;;;;;;;12.10;7.27;;;7.50;99.90;;;;;;4992717;28;20033;-71
2022/11/12 07:22:12;;;;;;;11.53;7.93;;;7.60;99.90;;;;;;4993755;28;20038;-71
2022/11/12 07:24:38;;;;;;;11.60;7.60;;;7.50;99.90;;;;;;4992421;28;20434;-71
2022/11/12 07:27:04;;;;;;;11.90;6.67;;;7.50;99.90;;;;;;5006397;28;20029;-72
2022/11/12 07:29:29;;;;;;;10.00;6.82;;;7.40;99.90;;;;;;4992039;28;20070;-70
2022/11/12 07:31:55;;;;;;;10.07;7.30;;;7.30;99.90;;;;;;4992046;28;20067;-70
2022/11/12 07:34:20;;;;;;;9.57;6.97;;;7.30;99.90;;;;;;4994272;28;20019;-73
2022/11/12 07:36:47;;;;;;;13.03;6.50;;;7.30;99.90;;;;;;4992940;28;20498;-70
2022/11/12 07:39:13;;;;;;;16.05;7.68;;;7.30;99.90;;;;;;4994474;28;20025;-72
2022/11/12 07:41:38;;;;;;;11.63;6.87;;;7.30;99.90;;;;;;4993159;28;20022;-75
2022/11/12 07:44:04;;;;;;;10.50;7.13;;;7.40;99.90;;;;;;4998154;28;20076;-71
2022/11/12 07:46:29;;;;;;;11.07;7.53;;;7.30;99.90;;;;;;5014119;28;20077;-71
2022/11/12 07:48:55;;;;;;;13.90;6.87;;;7.30;99.90;;;;;;5014324;28;20264;-69
2022/11/12 07:51:25;;;;;;;9.60;6.60;;;7.40;99.90;;;;;;5014270;28;20026;-70
2022/11/12 07:53:56;;;;;;;11.20;7.10;;;7.40;99.90;;;;;;5013043;28;20035;-70
2022/11/12 07:56:23;;;;;;;10.20;6.93;;;7.40;99.90;;;;;;5012769;28;20121;-72
2022/11/12 07:58:49;;;;;;;10.75;6.57;;;7.40;99.90;;;;;;5012359;28;20033;-68
2022/11/12 08:01:38;;;;;;;12.77;6.77;;;7.40;99.90;;;;;;5000212;28;20031;-71
2022/11/12 08:04:06;;;;;;;13.07;7.00;;;7.50;99.90;;;;;;4992535;28;20042;-68
2022/11/12 08:06:32;;;;;;;9.30;6.53;;;7.50;99.90;;;;;;4992611;28;20033;-68
2022/11/12 08:09:04;;;;;;;9.27;6.20;;;7.40;99.90;;;;;;4994311;28;20243;-67
2022/11/12 08:11:30;;;;;;;8.70;6.65;;;7.50;99.90;;;;;;4993432;28;20034;-67
2022/11/12 08:13:55;;;;;;;10.90;6.82;;;7.40;99.90;;;;;;4993732;28;20038;-67
2022/11/12 08:16:21;;;;;;;9.10;6.10;;;7.40;99.90;;;;;;4994412;28;20498;-65
2022/11/12 08:18:47;;;;;;;10.73;5.87;;;7.40;99.90;;;;;;4993923;28;20094;-65
2022/11/12 08:21:14;;;;;;;9.35;6.82;;;7.40;99.90;;;;;;4980802;28;20027;-66
2022/11/12 08:23:40;;;;;;;8.07;6.18;;;7.50;99.90;;;;;;4980256;28;20137;-65
2022/11/12 08:26:09;;;;;;;9.55;6.93;;;7.50;99.90;;;;;;4989535;28;20419;-67
2022/11/12 08:28:35;;;;;;;8.38;6.30;;;7.60;99.90;;;;;;4980169;28;20039;-68
2022/11/12 08:31:11;;;;;;;9.68;6.78;;;7.60;99.90;;;;;;4979687;28;20078;-67
2022/11/12 08:33:36;;;;;;;7.30;5.63;;;7.50;99.90;;;;;;4987646;28;20347;-68
2022/11/12 08:36:08;;;;;;;7.13;5.87;;;7.40;99.90;;;;;;4992687;28;20049;-68
2022/11/12 08:38:34;;;;;;;6.47;5.57;;;7.50;99.90;;;;;;5008786;28;20113;-68
2022/11/12 08:41:06;;;;;;;7.88;5.90;;;7.60;99.90;;;;;;4993716;28;20060;-68
2022/11/12 08:43:31;;;;;;;9.27;5.97;;;7.60;99.90;;;;;;4995721;28;20483;-68
2022/11/12 08:45:58;;;;;;;7.60;5.57;;;7.60;99.90;;;;;;4995461;28;20036;-68
2022/11/12 08:48:24;;;;;;;7.60;5.55;;;7.70;99.90;;;;;;4980112;28;20022;-68
2022/11/12 08:50:50;;;;;;;7.13;5.57;;;7.60;99.90;;;;;;4977808;28;20081;-68
2022/11/12 08:53:16;;;;;;;9.50;5.97;;;7.70;99.90;;;;;;4978537;28;20031;-67
2022/11/12 08:55:41;;;;;;;7.07;5.80;;;7.70;99.90;;;;;;4980094;28;20491;-68
2022/11/12 08:58:09;;;;;;;8.90;5.95;;;7.90;99.90;;;;;;4978285;28;20029;-68
2022/11/12 09:00:41;;;;;;;9.70;6.07;;;8.00;99.90;;;;;;4977034;28;20026;-66
2022/11/12 09:03:11;;;;;;;11.55;6.63;;;8.00;99.90;;;;;;4976846;28;20026;-66
2022/11/12 09:05:37;;;;;;;8.82;6.25;;;8.00;99.90;;;;;;4977948;28;20034;-66
2022/11/12 09:08:05;;;;;;;10.43;6.82;;;8.00;99.90;;;;;;4977985;28;20031;-67
2022/11/12 09:10:32;;;;;;;8.95;5.97;;;8.10;99.90;;;;;;4977009;28;20030;-66
2022/11/12 09:12:57;;;;;;;8.85;6.45;;;8.20;99.90;;;;;;4981584;28;20089;-67
2022/11/12 09:15:24;;;;;;;9.00;6.60;;;8.20;99.90;;;;;;4992211;28;20035;-67
2022/11/12 09:18:01;;;;;;;8.50;6.30;;;8.20;99.90;;;;;;4977605;28;20053;-67
2022/11/12 09:20:27;;;;;;;;;;;7.80;99.90;;;;;;4978453;28;20033;-67
2022/11/12 09:22:56;;;;;;;10.23;6.75;;;7.60;99.90;;;;;;4976460;28;19906;-67
2022/11/12 09:25:22;;;;;;;10.63;6.78;;;7.70;99.90;;;;;;4978094;28;20026;-68
2022/11/12 09:28:11;;;;;;;8.83;7.20;;;8.00;99.90;;;;;;4993117;28;20018;-67
2022/11/12 09:30:40;;;;;;;9.60;6.43;;;8.20;99.90;;;;;;4977214;28;20035;-67
2022/11/12 09:33:05;;;;;;;7.30;6.07;;;8.40;99.90;;;;;;4995336;28;20069;-67
2022/11/12 09:35:31;;;;;;;8.23;6.07;;;8.40;99.90;;;;;;4996866;28;20026;-67
2022/11/12 09:37:58;;;;;;;8.23;6.67;;;8.50;99.90;;;;;;4995906;28;20033;-68
2022/11/12 09:40:36;;;;;;;10.43;6.47;;;8.10;99.90;;;;;;4979444;28;20022;-67
2022/11/12 09:43:17;;;;;;;9.15;7.22;;;8.00;99.90;;;;;;4976284;28;20455;-67
2022/11/12 09:45:44;;;;;;;13.85;7.97;;;8.20;99.90;;;;;;4976918;28;20038;-66
2022/11/12 09:48:14;;;;;;;9.35;7.00;;;7.80;99.90;;;;;;4985964;28;20031;-67
2022/11/12 09:50:52;;;;;;;9.32;7.35;;;7.80;99.90;;;;;;4995864;28;20445;-68
2022/11/12 09:53:32;;;;;;;15.02;7.57;;;7.90;99.90;;;;;;4994863;28;20127;-70
2022/11/12 09:55:59;;;;;;;23.10;7.85;;;7.80;99.90;;;;;;4984538;28;20027;-69
2022/11/12 09:58:25;;;;;;;9.48;6.93;;;7.80;99.90;;;;;;4975605;28;20022;-68
2022/11/12 10:00:59;;;;;;;11.05;8.40;;;8.00;99.90;;;;;;4975311;28;20023;-69
2022/11/12 10:03:51;;;;;;;10.60;7.80;;;7.90;99.90;;;;;;4980168;28;20096;-69
2022/11/12 10:06:23;;;;;;;10.55;8.00;;;8.10;99.90;;;;;;4976274;28;20042;-69
2022/11/12 10:08:59;;;;;;;11.98;8.32;;;8.20;99.90;;;;;;4979723;28;20034;-68
2022/11/12 10:18:34;;;;;;;14.18;10.15;;;8.60;99.90;;;;;;4980090;28;20041;-69
2022/11/12 10:21:12;;;;;;;16.45;10.75;;;8.70;99.90;;;;;;4994332;28;20081;-70
2022/11/12 10:23:44;;;;;;;14.80;11.15;;;8.70;99.90;;;;;;4993528;28;20534;-69
2022/11/12 10:26:13;;;;;;;22.85;13.90;;;8.60;99.90;;;;;;4993341;28;20109;-70
2022/11/12 10:28:43;;;;;;;24.05;15.35;;;8.70;99.90;;;;;;4995659;28;20050;-70
2022/11/12 10:31:14;;;;;;;22.60;15.45;;;8.40;99.90;;;;;;4994162;28;20133;-69
2022/11/12 10:33:40;;;;;;;25.45;17.15;;;8.30;99.90;;;;;;5002388;28;20023;-72
2022/11/12 10:36:17;;;;;;;24.53;16.77;;;8.00;99.90;;;;;;4998503;28;20045;-68
2022/11/12 10:38:45;;;;;;;;;;;8.00;99.90;;;;;;4995436;28;20370;-67
2022/11/12 10:41:18;;;;;;;25.30;17.70;;;7.80;99.90;;;;;;4995541;28;19933;-69
2022/11/12 10:43:59;;;;;;;27.17;18.35;;;8.00;99.90;;;;;;4993814;28;20033;-69
2022/11/12 10:46:26;;;;;;;27.02;18.02;;;8.10;99.90;;;;;;4993249;28;20033;-70
2022/11/12 10:48:56;;;;;;;27.00;17.52;;;8.10;99.90;;;;;;4994342;28;20053;-69
2022/11/12 10:51:28;;;;;;;29.40;19.23;;;8.10;99.90;;;;;;4998355;28;20030;-69
2022/11/12 10:53:53;;;;;;;26.25;17.55;;;8.00;99.90;;;;;;4998554;28;20557;-69
2022/11/12 10:56:29;;;;;;;28.93;18.10;;;8.10;99.90;;;;;;4999476;28;20038;-70
2022/11/12 10:59:08;;;;;;;29.98;18.73;;;8.00;99.90;;;;;;4999911;28;20076;-69
2022/11/12 11:01:34;;;;;;;28.67;19.42;;;8.00;99.90;;;;;;4997376;28;20042;-68
2022/11/12 11:03:59;;;;;;;27.77;18.53;;;7.90;99.90;;;;;;4995961;28;20054;-68
2022/11/12 11:06:26;;;;;;;30.23;19.07;;;7.90;99.90;;;;;;4994794;28;20030;-68
2022/11/12 11:09:06;;;;;;;29.23;18.60;;;8.10;99.90;;;;;;4993961;28;20030;-68
2022/11/12 11:11:32;;;;;;;29.17;18.60;;;8.30;99.90;;;;;;4994738;28;20053;-69
2022/11/12 11:14:20;;;;;;;27.67;18.47;;;8.50;99.90;;;;;;5009687;23;20018;-66
2022/11/12 11:16:55;;;;;;;28.75;19.17;;;8.60;99.90;;;;;;4988125;28;20389;-66
2022/11/12 11:19:21;;;;;;;31.48;19.85;;;8.50;99.90;;;;;;4974761;28;20098;-67
2022/11/12 11:21:49;;;;;;;30.02;19.50;;;8.00;99.90;;;;;;4989263;28;20019;-66
2022/11/12 11:24:40;;;;;;;28.60;18.30;;;7.90;99.90;;;;;;4989248;28;20026;-66
2022/11/12 11:27:27;;;;;;;31.48;19.63;;;8.10;99.90;;;;;;4990065;28;20394;-66
2022/11/12 11:30:00;;;;;;;33.92;21.10;;;8.00;99.90;;;;;;4974261;28;20030;-66
2022/11/12 11:32:31;;;;;;;30.70;19.88;;;8.00;99.90;;;;;;4974755;28;20027;-67
2022/11/12 11:35:13;;;;;;;31.08;19.52;;;8.10;99.90;;;;;;4973103;28;20476;-67
2022/11/12 11:38:02;;;;;;;32.20;21.17;;;8.10;99.90;;;;;;4974470;28;20027;-66
2022/11/12 11:40:36;;;;;;;32.35;20.88;;;8.00;99.90;;;;;;4974606;28;20062;-66
2022/11/12 11:43:23;;;;;;;31.55;21.08;;;8.10;99.90;;;;;;4974599;28;20031;-66
2022/11/12 11:46:26;;;;;;;36.13;22.88;;;8.20;99.90;;;;;;4983702;28;20027;-65
2022/11/12 11:49:01;;;;;;;35.92;23.48;;;8.10;99.90;;;;;;4993241;28;20034;-65
2022/11/12 11:51:58;;;;;;;35.00;21.70;;;8.30;99.90;;;;;;4993498;28;20549;-65
2022/11/12 11:54:43;;;;;;;30.95;20.20;;;8.60;99.90;;;;;;4994149;28;20403;-65
2022/11/12 11:57:20;;;;;;;30.73;21.10;;;8.70;99.90;;;;;;4995613;28;20026;-65
2022/11/12 11:59:45;;;;;;;;;;;8.80;99.90;;;;;;4994992;28;20467;-65
2022/11/12 12:02:38;;;;;;;30.55;20.85;;;8.80;99.90;;;;;;4993026;28;19905;-65
2022/11/12 12:05:25;;;;;;;30.20;19.95;;;8.70;99.90;;;;;;4994567;28;20027;-65
2022/11/12 12:08:31;;;;;;;28.80;20.20;;;8.70;99.90;;;;;;4993967;28;20109;-66
2022/11/12 12:11:16;;;;;;;28.73;18.67;;;8.70;99.90;;;;;;4992874;28;20606;-66
2022/11/12 12:13:59;;;;;;;22.23;15.48;;;8.70;99.90;;;;;;4992657;28;20029;-66
2022/11/12 12:16:44;;;;;;;20.58;15.80;;;8.70;99.90;;;;;;4993382;28;20483;-66
2022/11/12 12:19:18;;;;;;;24.05;16.20;;;8.50;99.90;;;;;;4996420;28;20093;-65
2022/11/12 12:21:48;;;;;;;24.20;16.15;;;8.30;99.90;;;;;;4997484;28;20431;-65
2022/11/12 12:24:16;;;;;;;24.42;16.80;;;8.30;99.90;;;;;;4995821;28;20471;-65
2022/11/12 12:26:47;;;;;;;25.73;17.75;;;8.30;99.90;;;;;;4997053;28;20034;-65
2022/11/12 12:29:41;;;;;;;24.02;15.75;;;8.20;99.90;;;;;;4995825;28;20113;-66
2022/11/12 12:32:14;;;;;;;33.38;23.20;;;8.20;99.90;;;;;;4997096;28;20113;-65
2022/11/12 12:34:46;;;;;;;45.80;26.70;;;8.20;99.90;;;;;;4996286;28;20108;-66
2022/11/12 12:37:22;;;;;;;68.65;36.90;;;8.20;99.90;;;;;;4998104;28;20037;-66
2022/11/12 12:40:08;;;;;;;55.17;29.85;;;8.10;99.90;;;;;;4998064;28;20056;-66
2022/11/12 12:42:43;;;;;;;38.78;24.55;;;8.30;99.90;;;;;;4997708;28;20376;-66
2022/11/12 12:45:35;;;;;;;28.13;18.05;;;8.40;99.90;;;;;;4995780;28;20031;-66
2022/11/12 12:48:04;;;;;;;19.48;13.80;;;8.40;99.90;;;;;;4995359;28;20023;-66
2022/11/12 12:50:29;;;;;;;16.27;12.35;;;8.40;99.90;;;;;;4996718;28;20034;-66
2022/11/12 12:53:04;;;;;;;16.97;12.17;;;8.40;99.90;;;;;;4996696;28;20361;-65
2022/11/12 12:55:39;;;;;;;18.00;12.52;;;8.30;99.90;;;;;;4996589;28;20084;-66
2022/11/12 12:58:16;;;;;;;17.02;12.45;;;8.20;99.90;;;;;;4995142;28;20430;-66
2022/11/12 13:00:46;;;;;;;17.88;12.32;;;8.20;99.90;;;;;;4995119;28;20027;-67
2022/11/12 13:03:12;;;;;;;15.48;11.90;;;8.20;99.90;;;;;;4996461;28;20027;-66
2022/11/12 13:05:40;;;;;;;17.80;12.27;;;8.30;99.90;;;;;;4996490;28;20030;-66
2022/11/12 13:08:10;;;;;;;17.73;12.10;;;8.50;99.90;;;;;;4995290;28;20030;-66
2022/11/12 13:10:40;;;;;;;18.58;13.82;;;8.50;99.90;;;;;;4996865;28;20097;-67
2022/11/12 13:13:18;;;;;;;18.17;12.90;;;8.40;99.90;;;;;;4996131;28;20398;-67
2022/11/12 13:15:47;;;;;;;18.83;13.68;;;8.50;99.90;;;;;;4995789;28;20053;-67
2022/11/12 13:18:41;;;;;;;18.27;12.93;;;8.40;99.90;;;;;;4996545;28;20161;-67
2022/11/12 13:21:13;;;;;;;18.42;13.90;;;8.30;99.90;;;;;;4996413;28;20033;-67
2022/11/12 13:26:45;;;;;;;21.35;14.15;;;8.30;99.90;;;;;;4996057;28;20081;-66
2022/11/12 13:29:21;;;;;;;20.73;13.68;;;8.30;99.90;;;;;;4994610;28;20026;-66
2022/11/12 13:31:46;;;;;;;19.00;13.00;;;8.30;99.90;;;;;;4995732;28;20097;-66
2022/11/12 13:34:17;;;;;;;17.00;12.47;;;8.30;99.90;;;;;;4996098;28;20026;-67
2022/11/12 13:37:01;;;;;;;17.13;12.18;;;8.30;99.90;;;;;;4996232;28;20034;-65
2022/11/12 13:39:27;;;;;;;16.05;12.38;;;8.40;99.90;;;;;;4995819;28;20057;-65
2022/11/12 13:44:41;;;;;;;20.65;12.95;;;8.40;99.90;;;;;;4995846;28;20034;-65
2022/11/12 13:47:15;;;;;;;21.30;13.90;;;8.30;99.90;;;;;;4995796;28;20022;-66
2022/11/12 13:49:44;;;;;;;17.95;12.75;;;8.20;99.90;;;;;;4995879;28;20117;-65
2022/11/12 13:52:14;;;;;;;14.90;11.68;;;8.10;99.90;;;;;;4994489;28;20514;-66
2022/11/12 13:54:39;;;;;;;22.60;14.68;;;8.10;99.90;;;;;;4995653;28;20035;-67
2022/11/12 13:57:24;;;;;;;17.40;13.43;;;8.20;99.90;;;;;;4995766;28;20467;-65
2022/11/12 14:00:06;;;;;;;17.55;12.43;;;8.20;99.90;;;;;;4995557;28;20088;-65
2022/11/12 14:02:32;;;;;;;17.45;12.70;;;8.20;99.90;;;;;;4994979;28;20081;-66
2022/11/12 14:04:59;;;;;;;17.67;11.93;;;8.10;99.90;;;;;;4993885;28;20018;-66
2022/11/12 14:07:57;;;;;;;18.55;13.55;;;8.20;99.90;;;;;;4995249;28;20034;-67
2022/11/12 14:10:28;;;;;;;15.75;11.88;;;8.20;99.90;;;;;;4994696;28;20494;-66
2022/11/12 14:13:00;;;;;;;18.00;13.07;;;8.20;99.90;;;;;;4995094;28;20049;-66
2022/11/12 14:16:29;;;;;;;19.25;13.55;;;8.10;99.90;;;;;;4994776;28;20438;-67
2022/11/12 14:19:07;;;;;;;20.10;15.55;;;8.10;99.90;;;;;;4932235;29;20497;-66
2022/11/12 14:21:33;;;;;;;16.50;13.35;;;8.10;99.90;;;;;;4954415;29;20460;-66
2022/11/12 14:24:01;;;;;;;17.30;13.25;;;8.20;99.90;;;;;;4954302;28;20173;-66
2022/11/12 14:26:41;;;;;;;15.10;12.77;;;8.20;99.90;;;;;;4954037;29;20058;-65
2022/11/12 14:29:16;;;;;;;17.30;13.05;;;8.20;99.90;;;;;;4937975;29;20024;-66
2022/11/12 14:31:41;;;;;;;16.73;12.65;;;8.20;99.90;;;;;;4953659;29;20520;-65
2022/11/12 14:34:33;;;;;;;17.30;12.60;;;8.20;99.90;;;;;;4953671;28;20031;-65
2022/11/12 14:36:59;;;;;;;15.25;11.60;;;8.30;99.90;;;;;;4937814;28;20046;-65
2022/11/12 14:39:26;;;;;;;17.23;12.40;;;8.30;99.90;;;;;;4953651;29;20473;-65
2022/11/12 14:41:53;;;;;;;17.65;12.38;;;8.30;99.90;;;;;;4952983;28;20050;-66
2022/11/12 14:44:23;;;;;;;14.98;12.18;;;8.50;99.90;;;;;;4953785;28;20039;-65
2022/11/12 14:46:54;;;;;;;18.10;12.55;;;8.40;99.90;;;;;;4953340;29;20035;-65
2022/11/12 14:49:41;;;;;;;15.52;12.45;;;8.40;99.90;;;;;;4961629;28;20052;-65
2022/11/12 14:52:23;;;;;;;15.32;12.60;;;8.40;99.90;;;;;;4973967;28;20034;-66
2022/11/12 14:54:53;;;;;;;18.90;13.20;;;8.30;99.90;;;;;;4975121;28;20134;-66
2022/11/12 14:57:30;;;;;;;18.30;13.25;;;8.30;99.90;;;;;;4975091;28;20066;-66
2022/11/12 14:59:56;;;;;;;18.98;13.98;;;8.30;99.90;;;;;;4974949;28;20042;-66
2022/11/12 15:02:31;;;;;;;20.25;14.05;;;8.20;99.90;;;;;;4974502;28;20114;-67
2022/11/12 15:05:03;;;;;;;19.02;13.80;;;8.30;99.90;;;;;;4974804;28;20026;-66
2022/11/12 15:07:52;;;;;;;18.75;14.13;;;8.30;99.90;;;;;;4977219;28;20027;-67
2022/11/12 15:10:38;;;;;;;19.50;14.73;;;8.40;99.90;;;;;;4980704;28;20034;-66
2022/11/12 15:13:19;;;;;;;18.88;13.98;;;8.20;99.90;;;;;;4990211;28;20386;-67
2022/11/12 15:16:00;;;;;;;17.35;12.95;;;8.30;99.90;;;;;;4992419;28;20372;-69
2022/11/12 15:18:28;;;;;;;19.52;14.35;;;8.30;99.90;;;;;;4982126;28;20023;-66
2022/11/12 15:21:06;;;;;;;19.40;14.18;;;8.30;99.90;;;;;;4974754;28;20023;-66
2022/11/12 15:23:32;;;;;;;18.90;14.40;;;8.30;99.90;;;;;;4981496;28;20022;-66
2022/11/12 15:25:58;;;;;;;23.33;15.85;;;8.10;99.90;;;;;;4988930;28;20030;-66
2022/11/12 15:28:25;;;;;;;19.60;14.88;;;8.20;99.90;;;;;;4982662;28;20479;-67
2022/11/12 15:31:05;;;;;;;20.63;15.68;;;8.20;99.90;;;;;;4992050;28;20509;-67
2022/11/12 15:33:31;;;;;;;26.77;19.65;;;8.20;99.90;;;;;;4977686;28;20384;-67
2022/11/12 15:36:00;;;;;;;20.70;14.53;;;8.30;99.90;;;;;;4974670;28;20085;-66
2022/11/12 15:38:37;;;;;;;19.92;14.73;;;8.30;99.90;;;;;;4974734;28;20517;-67
2022/11/12 15:41:03;;;;;;;21.30;15.65;;;8.30;99.90;;;;;;4973192;28;20397;-68
2022/11/12 15:43:33;;;;;;;23.55;15.73;;;8.30;99.90;;;;;;4973453;28;20026;-67
2022/11/12 15:46:00;;;;;;;21.17;14.73;;;8.30;99.90;;;;;;4980284;28;20022;-66
2022/11/12 15:48:25;;;;;;;19.98;13.75;;;8.30;99.90;;;;;;4991081;28;20027;-67
2022/11/12 15:50:51;;;;;;;19.27;14.53;;;8.30;99.90;;;;;;4993449;28;20035;-67
2022/11/12 15:53:17;;;;;;;21.60;15.77;;;8.40;99.90;;;;;;4997401;28;20030;-66
2022/11/12 15:55:44;;;;;;;19.17;15.25;;;8.40;99.90;;;;;;4997754;28;20038;-66
2022/11/12 15:58:22;;;;;;;;;;;8.30;99.90;;;;;;4997197;28;20097;-67
2022/11/12 16:00:47;;;;;;;22.38;15.77;;;8.40;99.90;;;;;;4996846;28;19906;-72
2022/11/12 16:03:19;;;;;;;19.60;15.70;;;8.50;99.90;;;;;;5005627;28;20544;-72
2022/11/12 16:05:45;;;;;;;23.02;16.40;;;8.50;99.90;;;;;;4978992;28;20396;-72
2022/11/12 16:08:11;;;;;;;20.45;15.45;;;8.60;99.90;;;;;;4978777;28;20026;-72
2022/11/12 16:10:39;;;;;;;23.45;17.13;;;8.60;99.90;;;;;;4976963;28;20035;-69
2022/11/12 16:13:10;;;;;;;30.60;18.73;;;8.60;99.90;;;;;;4982500;28;20029;-69
2022/11/12 16:15:36;;;;;;;28.55;18.55;;;8.60;99.90;;;;;;4996176;28;20042;-68
2022/11/12 16:18:01;;;;;;;29.15;19.27;;;8.60;99.90;;;;;;4997113;28;20042;-69
2022/11/12 16:20:30;;;;;;;32.80;20.97;;;8.50;99.90;;;;;;4998176;28;20089;-69
2022/11/12 16:22:57;;;;;;;34.92;21.50;;;8.60;99.90;;;;;;4997516;28;20026;-69
2022/11/12 16:25:30;;;;;;;31.60;19.58;;;8.40;99.90;;;;;;4996540;28;20041;-69
2022/11/12 16:27:57;;;;;;;35.65;20.65;;;8.40;99.90;;;;;;4996778;28;20410;-70
2022/11/12 16:30:24;;;;;;;;;;;8.30;99.90;;;;;;5012844;28;20030;-69
2022/11/12 16:32:50;;;;;;;31.40;19.50;;;8.30;99.90;;;;;;4997067;28;19936;-69
2022/11/12 16:35:17;;;;;;;37.53;21.90;;;8.30;99.90;;;;;;4997276;28;20030;-69
2022/11/12 16:37:44;;;;;;;38.28;21.33;;;8.40;99.90;;;;;;4997274;28;20022;-69
2022/11/12 16:40:18;;;;;;;39.95;23.15;;;8.40;99.90;;;;;;4996998;28;20066;-69
2022/11/12 16:42:47;;;;;;;39.95;23.25;;;8.40;99.90;;;;;;4996159;28;20514;-69
2022/11/12 16:45:18;;;;;;;37.35;22.58;;;8.40;99.90;;;;;;4996956;28;20056;-68
2022/11/12 16:47:52;;;;;;;40.08;22.95;;;8.50;99.90;;;;;;4996823;28;20033;-69
2022/11/12 16:50:20;;;;;;;34.55;22.35;;;8.40;99.90;;;;;;4997116;28;20018;-69
2022/11/12 16:52:47;;;;;;;36.67;21.67;;;8.40;99.90;;;;;;4995725;28;20022;-69
2022/11/12 16:55:13;;;;;;;40.83;22.95;;;8.50;99.90;;;;;;4996973;28;20030;-68
2022/11/12 16:57:39;;;;;;;53.80;26.77;;;8.50;99.90;;;;;;4995854;28;20085;-68
2022/11/12 17:00:06;;;;;;;34.47;22.23;;;8.60;99.90;;;;;;5013349;28;20120;-68
2022/11/12 17:02:32;;;;;;;35.65;20.25;;;8.60;99.90;;;;;;4997140;28;20053;-69
2022/11/12 17:05:03;;;;;;;40.10;22.73;;;8.50;99.90;;;;;;4994822;28;20021;-70
2022/11/12 17:07:29;;;;;;;42.13;22.77;;;8.50;99.90;;;;;;4996637;28;20112;-69
2022/11/12 17:09:54;;;;;;;75.03;31.83;;;8.50;99.90;;;;;;4996837;28;20483;-70
2022/11/12 17:12:20;;;;;;;48.07;24.80;;;8.50;99.90;;;;;;4996944;28;20031;-69
2022/11/12 17:14:45;;;;;;;49.50;26.07;;;8.50;99.90;;;;;;5011867;28;20042;-67
2022/11/12 17:17:11;;;;;;;40.17;23.30;;;8.30;99.90;;;;;;4996055;28;20034;-67
2022/11/12 17:19:36;;;;;;;55.03;28.50;;;8.30;99.90;;;;;;4996095;28;20049;-68
2022/11/12 17:22:02;;;;;;;78.83;32.30;;;8.40;99.90;;;;;;4996167;28;20382;-67
2022/11/12 17:24:28;;;;;;;69.13;29.73;;;8.40;99.90;;;;;;4996115;28;20034;-67
2022/11/12 17:26:53;;;;;;;77.22;31.88;;;8.40;99.90;;;;;;4996051;28;20031;-68
2022/11/12 17:29:19;;;;;;;64.77;29.53;;;8.40;99.90;;;;;;4996069;28;20042;-68
2022/11/12 17:31:50;;;;;;;52.47;30.17;;;8.40;99.90;;;;;;4995942;28;20022;-67
2022/11/12 17:34:16;;;;;;;38.08;23.30;;;8.30;99.90;;;;;;4995020;28;20133;-67
2022/11/12 17:36:41;;;;;;;41.40;24.73;;;8.30;99.90;;;;;;4994744;28;20530;-67
2022/11/12 17:39:11;;;;;;;39.73;24.73;;;8.40;99.90;;;;;;4996377;28;20431;-67
2022/11/12 17:41:36;;;;;;;40.63;24.85;;;8.40;99.90;;;;;;4996121;28;20038;-68
2022/11/12 17:44:02;;;;;;;40.60;25.07;;;8.40;99.90;;;;;;4995730;28;20030;-68
2022/11/12 17:46:28;;;;;;;38.00;24.27;;;8.30;99.90;;;;;;4981337;28;20098;-68
2022/11/12 17:48:55;;;;;;;47.58;26.25;;;8.30;99.90;;;;;;4976337;28;20030;-68
2022/11/12 17:51:21;;;;;;;;;;;8.40;99.90;;;;;;4977097;28;20043;-68
2022/11/12 17:53:47;;;;;;;37.30;21.67;;;8.40;99.90;;;;;;4975155;28;19913;-67
2022/11/12 17:56:18;;;;;;;33.87;21.80;;;8.40;99.90;;;;;;4977496;28;20023;-67
2022/11/12 17:58:44;;;;;;;36.15;21.23;;;8.50;99.90;;;;;;4980285;28;20043;-68
2022/11/12 18:01:14;;;;;;;36.72;22.35;;;8.50;99.90;;;;;;5004038;28;20102;-69
2022/11/12 18:03:41;;;;;;;38.28;22.52;;;8.40;99.90;;;;;;4989414;28;20122;-68
2022/11/12 18:06:13;;;;;;;35.25;21.33;;;8.50;99.90;;;;;;4989938;28;20031;-68
2022/11/12 18:08:40;;;;;;;33.42;21.08;;;8.50;99.90;;;;;;5001877;28;20060;-67
2022/11/12 18:11:06;;;;;;;;;;;8.60;99.90;;;;;;5007279;28;20077;-67
2022/11/12 18:13:32;;;;;;;35.70;21.02;;;8.50;99.90;;;;;;5005737;28;19913;-67
2022/11/12 18:15:58;;;;;;;42.78;24.67;;;8.40;99.90;;;;;;5005541;28;20035;-68